Time;durP1;ratioP1;P1;durP2;ratioP2;P2;SDS_P1;SDS_P2;PMS_P1;PMS_P2;Temp;Humidity;BMP_temperature;BMP_pressure;BME280_temperature;BME280_humidity;BME280_pressure;Samples;Min_cycle;Max_cycle;Signal;HPM_P1;HPM_P2
2021/07/01 00:00:56;;;;;;;80.38;24.20;;;;;;;15.98;96.94;97627.06;5067055;28;20760;-73
2021/07/01 00:03:23;;;;;;;102.80;46.85;;;;;;;16.00;95.61;97616.44;5070065;28;20220;-72
2021/07/01 00:05:50;;;;;;;70.50;28.52;;;;;;;16.10;95.30;97616.63;5069607;28;20244;-72
2021/07/01 00:08:16;;;;;;;76.00;24.90;;;;;;;15.77;96.90;97620.66;5066611;28;20235;-73
2021/07/01 00:10:43;;;;;;;74.50;15.80;;;;;;;15.88;96.80;97618.13;5068898;28;20247;-73
2021/07/01 00:13:09;;;;;;;77.40;21.75;;;;;;;15.63;100.00;97618.09;5069937;28;20579;-73
2021/07/01 00:15:37;;;;;;;76.45;26.48;;;;;;;15.65;99.84;97621.44;5067414;28;20247;-73
2021/07/01 00:18:05;;;;;;;82.25;25.80;;;;;;;15.67;99.56;97624.81;5070754;28;20244;-73
2021/07/01 00:20:32;;;;;;;79.63;21.67;;;;;;;15.79;98.93;97626.66;5070186;28;20354;-72
2021/07/01 00:22:59;;;;;;;76.55;18.23;;;;;;;15.63;100.00;97623.34;5069569;28;20714;-73
2021/07/01 00:25:25;;;;;;;62.67;20.67;;;;;;;15.56;100.00;97618.47;5070915;28;20599;-73
2021/07/01 00:27:52;;;;;;;80.53;29.02;;;;;;;15.82;99.30;97621.16;5068307;28;20240;-73
2021/07/01 00:30:21;;;;;;;72.88;15.98;;;;;;;15.70;100.00;97614.94;5070489;28;20213;-72
2021/07/01 00:32:49;;;;;;;70.20;18.30;;;;;;;15.34;100.00;97623.50;5067890;28;20741;-72
2021/07/01 00:35:16;;;;;;;69.25;14.52;;;;;;;15.08;100.00;97620.81;5069584;28;20209;-73
2021/07/01 00:37:43;;;;;;;72.22;15.63;;;;;;;15.41;100.00;97617.72;5071202;28;20251;-73
2021/07/01 00:40:12;;;;;;;90.93;28.10;;;;;;;15.45;100.00;97623.63;5065562;28;20210;-72
2021/07/01 00:42:39;;;;;;;73.55;27.75;;;;;;;15.60;100.00;97625.25;5068226;28;20639;-72
2021/07/01 00:45:08;;;;;;;87.57;19.92;;;;;;;15.52;99.63;97622.28;5067186;28;20213;-72
2021/07/01 00:47:35;;;;;;;74.63;19.10;;;;;;;15.39;100.00;97626.66;5066229;28;20246;-73
2021/07/01 00:50:07;;;;;;;81.25;25.38;;;;;;;15.29;100.00;97625.56;5067866;28;20212;-72
2021/07/01 00:52:33;;;;;;;84.43;28.17;;;;;;;15.28;100.00;97634.44;5067179;28;20286;-72
2021/07/01 00:55:00;;;;;;;92.38;36.05;;;;;;;15.36;100.00;97626.88;5068443;28;20214;-72
2021/07/01 00:57:26;;;;;;;86.80;41.58;;;;;;;15.47;100.00;97623.53;5066721;28;20237;-72
2021/07/01 00:59:53;;;;;;;85.28;28.30;;;;;;;15.48;99.39;97626.06;5068831;28;20718;-72
2021/07/01 01:02:20;;;;;;;86.30;31.45;;;;;;;15.53;99.63;97623.97;5067792;28;20248;-73
2021/07/01 01:04:46;;;;;;;92.18;28.27;;;;;;;15.45;98.94;97623.63;5069615;28;20942;-72
2021/07/01 01:07:14;;;;;;;81.60;28.48;;;;;;;15.49;98.90;97625.09;5067237;28;20244;-72
2021/07/01 01:09:41;;;;;;;69.82;18.50;;;;;;;15.43;99.87;97622.88;5066567;28;20221;-72
2021/07/01 01:12:08;;;;;;;82.57;30.90;;;;;;;15.41;99.86;97624.78;5066712;28;20248;-73
2021/07/01 01:14:35;;;;;;;69.00;22.17;;;;;;;15.37;100.00;97628.56;5068369;28;20217;-73
2021/07/01 01:17:01;;;;;;;69.05;22.70;;;;;;;15.28;98.70;97624.75;5067719;28;20248;-73
2021/07/01 01:19:28;;;;;;;84.43;29.38;;;;;;;15.22;99.22;97622.53;5068433;28;20221;-73
2021/07/01 01:21:56;;;;;;;69.97;27.60;;;;;;;15.11;100.00;97631.13;5069674;28;20241;-72
2021/07/01 01:24:22;;;;;;;76.40;26.73;;;;;;;15.22;100.00;97626.00;5069232;28;20220;-72
2021/07/01 01:26:49;;;;;;;82.85;26.33;;;;;;;14.96;99.83;97632.09;5069095;28;20241;-73
2021/07/01 01:29:15;;;;;;;72.47;23.60;;;;;;;15.27;100.00;97635.34;5069240;28;20222;-73
2021/07/01 01:31:42;;;;;;;81.70;16.00;;;;;;;15.23;100.00;97622.41;5067172;28;20241;-73
2021/07/01 01:34:08;;;;;;;72.03;13.70;;;;;;;15.34;100.00;97624.31;5067180;28;20213;-72
2021/07/01 01:36:34;;;;;;;72.00;14.63;;;;;;;15.14;99.29;97630.06;5067113;28;20247;-72
2021/07/01 01:39:03;;;;;;;80.78;15.95;;;;;;;15.16;100.00;97626.41;5068337;28;20241;-73
2021/07/01 01:41:29;;;;;;;68.65;13.57;;;;;;;15.15;100.00;97627.34;5067009;28;20248;-72
2021/07/01 01:43:56;;;;;;;61.83;14.05;;;;;;;15.24;100.00;97625.91;5068076;28;20252;-73
2021/07/01 01:46:23;;;;;;;72.97;14.18;;;;;;;15.16;100.00;97629.03;5068945;28;20249;-73
2021/07/01 01:48:51;;;;;;;67.63;14.35;;;;;;;15.07;100.00;97631.41;5071837;28;20211;-72
2021/07/01 01:51:17;;;;;;;68.82;14.63;;;;;;;15.04;100.00;97624.56;5068158;28;20240;-72
2021/07/01 01:53:44;;;;;;;78.57;15.82;;;;;;;15.19;100.00;97626.19;5071423;28;20227;-72
2021/07/01 01:56:12;;;;;;;74.47;15.23;;;;;;;15.09;100.00;97625.13;5072746;28;20268;-72
2021/07/01 01:58:38;;;;;;;67.80;14.70;;;;;;;15.02;100.00;97632.56;5072563;28;20240;-73
2021/07/01 02:01:05;;;;;;;79.20;16.13;;;;;;;14.93;100.00;97634.94;5070349;28;20737;-72
2021/07/01 02:03:31;;;;;;;70.18;15.18;;;;;;;15.03;100.00;97636.00;5068618;28;20216;-73
2021/07/01 02:05:58;;;;;;;67.78;14.45;;;;;;;14.67;100.00;97640.06;5072289;28;20244;-72
2021/07/01 02:08:24;;;;;;;73.55;15.77;;;;;;;14.62;100.00;97636.88;5071321;28;20231;-73
2021/07/01 02:10:51;;;;;;;68.22;14.18;;;;;;;14.80;100.00;97635.72;5068836;28;20231;-73
2021/07/01 02:13:19;;;;;;;63.30;14.43;;;;;;;14.70;100.00;97639.03;5071450;28;20218;-72
2021/07/01 02:15:46;;;;;;;77.47;15.20;;;;;;;14.51;100.00;97636.69;5072747;28;20228;-72
2021/07/01 02:18:13;;;;;;;70.65;15.35;;;;;;;14.76;100.00;97633.38;5070891;28;20736;-73
2021/07/01 02:20:39;;;;;;;71.13;15.70;;;;;;;14.82;100.00;97631.22;5071574;28;20239;-73
2021/07/01 02:23:06;;;;;;;79.78;16.40;;;;;;;14.88;100.00;97631.75;5070754;28;20217;-73
2021/07/01 02:25:32;;;;;;;69.50;15.40;;;;;;;14.80;100.00;97625.22;5070808;28;20233;-72
2021/07/01 02:27:59;;;;;;;72.50;15.50;;;;;;;14.68;100.00;97631.25;5073122;28;20213;-73
2021/07/01 02:30:27;;;;;;;64.80;14.50;;;;;;;14.72;100.00;97629.25;5070098;28;20243;-72
2021/07/01 02:32:53;;;;;;;78.38;16.15;;;;;;;14.88;100.00;97631.75;5071914;28;20263;-72
2021/07/01 02:35:20;;;;;;;64.00;15.63;;;;;;;15.03;100.00;97633.38;5067664;28;20213;-72
2021/07/01 02:37:46;;;;;;;72.68;15.95;;;;;;;15.00;100.00;97630.97;5071624;28;20233;-72
2021/07/01 02:40:15;;;;;;;67.47;16.08;;;;;;;14.83;100.00;97640.78;5068583;28;20920;-72
2021/07/01 02:42:42;;;;;;;69.03;15.50;;;;;;;14.93;100.00;97640.19;5071580;28;21001;-73
2021/07/01 02:45:10;;;;;;;85.78;17.25;;;;;;;14.80;100.00;97638.34;5066463;28;20217;-71
2021/07/01 02:47:38;;;;;;;68.38;15.38;;;;;;;14.72;100.00;97648.50;5069904;28;20243;-72
2021/07/01 02:50:06;;;;;;;68.90;14.20;;;;;;;14.69;100.00;97647.84;5069278;28;20221;-73
2021/07/01 02:52:33;;;;;;;75.00;15.07;;;;;;;14.77;100.00;97646.41;5071572;28;20221;-73
2021/07/01 02:54:59;;;;;;;59.00;13.05;;;;;;;14.58;100.00;97640.66;5067760;28;20220;-72
2021/07/01 02:57:26;;;;;;;60.03;12.95;;;;;;;14.63;100.00;97649.06;5067128;28;20347;-73
2021/07/01 02:59:53;;;;;;;56.05;12.55;;;;;;;14.69;100.00;97643.44;5071249;28;20218;-73
2021/07/01 03:02:19;;;;;;;70.15;13.38;;;;;;;14.80;100.00;97648.00;5065521;28;20265;-72
2021/07/01 03:04:47;;;;;;;80.53;14.70;;;;;;;14.80;100.00;97655.88;5073656;28;20989;-72
2021/07/01 03:07:13;;;;;;;72.00;14.65;;;;;;;14.74;100.00;97651.88;5071055;28;20252;-72
2021/07/01 03:09:40;;;;;;;73.00;14.52;;;;;;;14.76;100.00;97655.25;5071049;28;20619;-72
2021/07/01 03:12:07;;;;;;;70.57;13.77;;;;;;;14.72;100.00;97645.88;5070829;28;20239;-73
2021/07/01 03:14:34;;;;;;;66.30;13.18;;;;;;;14.62;100.00;97657.88;5067518;28;20222;-72
2021/07/01 03:17:00;;;;;;;70.22;13.68;;;;;;;14.70;100.00;97655.59;5069728;28;21164;-72
2021/07/01 03:19:27;;;;;;;70.65;13.07;;;;;;;14.34;100.00;97654.31;5067821;28;20233;-72
2021/07/01 03:21:55;;;;;;;54.40;11.52;;;;;;;14.19;100.00;97655.25;5072306;28;20241;-72
2021/07/01 03:24:21;;;;;;;47.78;10.60;;;;;;;14.25;100.00;97649.66;5067742;28;20221;-72
2021/07/01 03:26:47;;;;;;;50.35;10.68;;;;;;;14.35;100.00;97649.91;5069762;28;20236;-72
2021/07/01 03:29:14;;;;;;;54.05;11.45;;;;;;;14.48;100.00;97660.50;5069167;28;20213;-72
2021/07/01 03:31:40;;;;;;;68.28;13.25;;;;;;;14.44;100.00;97650.19;5066807;28;20601;-73
2021/07/01 03:34:07;;;;;;;55.47;11.38;;;;;;;14.48;100.00;97650.00;5069690;28;20307;-73
2021/07/01 03:36:33;;;;;;;59.60;12.00;;;;;;;14.45;100.00;97657.13;5066431;28;20229;-72
2021/07/01 03:39:03;;;;;;;64.22;12.52;;;;;;;14.26;100.00;97652.19;5070748;28;20236;-73
2021/07/01 03:41:30;;;;;;;48.83;10.45;;;;;;;14.27;100.00;97653.03;5069404;28;20236;-72
2021/07/01 03:43:56;;;;;;;57.10;11.35;;;;;;;14.28;100.00;97654.72;5070736;28;20225;-72
2021/07/01 03:46:23;;;;;;;223.75;83.82;;;;;;;14.38;100.00;97668.94;5068018;28;20241;-72
2021/07/01 03:48:49;;;;;;;90.28;40.83;;;;;;;14.22;100.00;97660.31;5067636;28;20205;-72
2021/07/01 03:51:16;;;;;;;118.45;52.03;;;;;;;14.19;100.00;97665.75;5068400;28;20244;-72
2021/07/01 03:53:42;;;;;;;129.35;59.40;;;;;;;14.11;100.00;97668.00;5067752;28;20212;-72
2021/07/01 03:56:11;;;;;;;132.23;64.18;;;;;;;14.29;100.00;97674.75;5069620;28;20241;-72
2021/07/01 03:58:38;;;;;;;117.82;54.45;;;;;;;14.32;100.00;97671.09;5067936;28;20232;-73
2021/07/01 04:01:04;;;;;;;130.70;62.15;;;;;;;14.46;100.00;97674.56;5069114;28;20237;-73
2021/07/01 04:03:31;;;;;;;77.15;20.40;;;;;;;14.39;100.00;97672.41;5070656;28;20221;-72
2021/07/01 04:05:57;;;;;;;66.70;17.63;;;;;;;14.31;100.00;97675.50;5068351;28;20242;-72
2021/07/01 04:08:24;;;;;;;68.57;18.73;;;;;;;14.25;100.00;97670.63;5069292;28;20232;-72
2021/07/01 04:10:50;;;;;;;70.25;23.10;;;;;;;14.35;100.00;97671.75;5068255;28;20238;-73
2021/07/01 04:13:18;;;;;;;66.90;21.13;;;;;;;14.33;100.00;97672.78;5069033;28;20261;-73
2021/07/01 04:15:45;;;;;;;75.85;16.65;;;;;;;14.37;100.00;97680.38;5068561;28;20243;-72
2021/07/01 04:18:12;;;;;;;76.63;15.57;;;;;;;14.45;100.00;97678.13;5070193;28;20229;-73
2021/07/01 04:20:39;;;;;;;88.72;26.67;;;;;;;14.35;100.00;97676.97;5070344;28;20240;-73
2021/07/01 04:23:06;;;;;;;82.93;18.38;;;;;;;14.43;100.00;97681.78;5070151;28;20219;-73
2021/07/01 04:25:32;;;;;;;79.05;23.77;;;;;;;14.61;100.00;97682.44;5068307;28;20244;-72
2021/07/01 04:27:59;;;;;;;82.10;21.90;;;;;;;14.33;100.00;97684.13;5068386;28;20892;-72
2021/07/01 04:30:27;;;;;;;67.82;16.05;;;;;;;14.44;100.00;97676.41;5071040;28;20500;-72
2021/07/01 04:32:54;;;;;;;63.97;13.00;;;;;;;14.32;100.00;97677.19;5070634;28;20212;-73
2021/07/01 04:35:20;;;;;;;75.25;13.55;;;;;;;14.43;100.00;97690.50;5064384;28;20694;-72
2021/07/01 04:37:47;;;;;;;65.78;13.50;;;;;;;14.44;100.00;97678.22;5065089;28;20238;-73
2021/07/01 04:40:14;;;;;;;67.65;17.95;;;;;;;14.44;100.00;97689.53;5068474;28;20275;-72
2021/07/01 04:42:41;;;;;;;79.40;28.02;;;;;;;14.35;100.00;97682.22;5066552;28;20219;-72
2021/07/01 04:45:09;;;;;;;89.35;18.75;;;;;;;14.29;100.00;97685.25;5069554;28;20214;-71
2021/07/01 04:47:37;;;;;;;79.50;24.33;;;;;;;14.36;100.00;97689.19;5069279;28;20248;-72
2021/07/01 04:50:06;;;;;;;75.47;22.40;;;;;;;14.31;100.00;97691.25;5066986;28;20213;-73
2021/07/01 04:52:32;;;;;;;85.13;28.45;;;;;;;14.26;100.00;97685.41;5069117;28;20233;-72
2021/07/01 04:54:59;;;;;;;93.30;40.30;;;;;;;14.25;100.00;97686.38;5069268;28;20214;-72
2021/07/01 04:57:25;;;;;;;76.50;26.20;;;;;;;14.22;100.00;97686.56;5069949;28;20244;-72
2021/07/01 04:59:52;;;;;;;87.63;34.58;;;;;;;14.24;100.00;97695.16;5069686;28;20233;-72
2021/07/01 05:02:18;;;;;;;89.18;27.38;;;;;;;14.04;100.00;97699.84;5059097;28;20229;-72
2021/07/01 05:04:46;;;;;;;61.13;22.30;;;;;;;14.11;100.00;97704.72;5070006;28;20690;-72
2021/07/01 05:07:13;;;;;;;93.97;50.05;;;;;;;14.15;100.00;97695.72;5071406;28;20236;-72
2021/07/01 05:09:39;;;;;;;7.72;7.22;;;;;;;14.19;100.00;97697.22;5071849;28;20214;-72
2021/07/01 05:12:06;;;;;;;6.95;6.45;;;;;;;14.24;100.00;97703.03;5070359;28;20239;-73
2021/07/01 05:14:33;;;;;;;7.18;6.68;;;;;;;14.21;100.00;97711.13;5066933;28;20216;-71
2021/07/01 05:16:59;;;;;;;7.00;6.60;;;;;;;14.25;100.00;97702.13;5068653;28;20241;-72
2021/07/01 05:19:26;;;;;;;6.93;6.53;;;;;;;14.31;100.00;97701.72;5071574;28;20234;-73
2021/07/01 05:21:54;;;;;;;7.25;6.70;;;;;;;14.31;100.00;97695.66;5068378;28;20236;-72
2021/07/01 05:24:20;;;;;;;6.97;6.57;;;;;;;14.40;100.00;97706.41;5070460;28;20220;-72
2021/07/01 05:26:47;;;;;;;7.05;6.60;;;;;;;14.49;100.00;97704.19;5070736;28;20248;-72
2021/07/01 05:29:14;;;;;;;6.32;5.90;;;;;;;14.26;100.00;97701.16;5070340;28;20352;-73
2021/07/01 05:31:40;;;;;;;6.80;6.40;;;;;;;14.40;100.00;97701.16;5067878;28;20247;-72
2021/07/01 05:34:07;;;;;;;6.13;5.72;;;;;;;14.52;100.00;97704.84;5068122;28;20593;-72
2021/07/01 05:36:33;;;;;;;6.85;6.35;;;;;;;14.40;100.00;97709.03;5070570;28;20237;-72
2021/07/01 05:39:01;;;;;;;6.55;6.15;;;;;;;14.33;100.00;97709.50;5068875;28;20886;-72
2021/07/01 05:41:27;;;;;;;6.25;5.95;;;;;;;14.40;100.00;97713.44;5068256;28;20607;-73
2021/07/01 05:43:54;;;;;;;6.97;6.57;;;;;;;14.22;100.00;97720.66;5069536;28;20220;-72
2021/07/01 05:46:21;;;;;;;6.93;6.43;;;;;;;14.37;100.00;97706.63;5070664;28;20654;-72
2021/07/01 05:48:47;;;;;;;6.47;6.10;;;;;;;14.40;100.00;97711.66;5068958;28;20705;-73
2021/07/01 05:51:15;;;;;;;7.10;6.60;;;;;;;14.23;100.00;97714.47;5069830;28;20245;-72
2021/07/01 05:53:49;;;;;;;6.53;6.13;;;;;;;14.33;100.00;97720.00;5071626;28;20220;-73
2021/07/01 05:56:17;;;;;;;7.03;6.53;;;;;;;14.35;100.00;97721.59;5069802;28;20246;-73
2021/07/01 05:58:43;;;;;;;8.05;7.35;;;;;;;14.51;100.00;97733.78;5071712;28;20232;-72
2021/07/01 06:01:10;;;;;;;7.80;7.10;;;;;;;14.41;100.00;97730.88;5069765;28;20243;-75
2021/07/01 06:03:36;;;;;;;7.85;7.15;;;;;;;14.51;100.00;97741.66;5070241;28;20234;-73
2021/07/01 06:06:07;;;;;;;8.18;7.38;;;;;;;14.42;100.00;97730.78;5070667;28;20237;-73
2021/07/01 06:08:34;;;;;;;7.80;7.10;;;;;;;14.49;100.00;97735.66;5068308;28;20225;-73
2021/07/01 06:11:02;;;;;;;8.73;7.15;;;;;;;14.56;100.00;97737.81;5071782;28;20237;-72
2021/07/01 06:13:30;;;;;;;15.85;7.90;;;;;;;14.47;100.00;97733.13;5068525;28;20695;-72
2021/07/01 06:15:57;;;;;;;27.17;8.65;;;;;;;14.54;100.00;97733.59;5069286;28;20248;-73
2021/07/01 06:18:24;;;;;;;30.42;8.90;;;;;;;14.31;100.00;97737.63;5070922;28;20235;-72
2021/07/01 06:20:51;;;;;;;35.92;9.23;;;;;;;14.53;100.00;97738.00;5070795;28;20259;-72
2021/07/01 06:23:18;;;;;;;33.35;9.10;;;;;;;14.45;100.00;97735.84;5068102;28;20210;-72
2021/07/01 06:25:47;;;;;;;34.28;8.88;;;;;;;14.37;100.00;97734.63;5071238;28;20243;-72
2021/07/01 06:28:14;;;;;;;50.05;10.82;;;;;;;14.56;100.00;97731.75;5066456;28;20236;-72
2021/07/01 06:30:44;;;;;;;52.97;12.02;;;;;;;14.56;100.00;97742.22;5070586;28;20237;-73
2021/07/01 06:33:12;;;;;;;66.88;30.90;;;;;;;14.46;100.00;97740.16;5073339;28;20294;-73
2021/07/01 06:35:39;;;;;;;72.82;35.40;;;;;;;14.57;100.00;97741.28;5071284;28;20238;-72
2021/07/01 06:38:10;;;;;;;84.13;51.55;;;;;;;14.47;100.00;97748.88;5075179;28;20217;-73
2021/07/01 06:40:37;;;;;;;82.10;45.00;;;;;;;14.55;100.00;97745.78;5072393;28;20236;-72
2021/07/01 06:43:04;;;;;;;88.22;48.50;;;;;;;14.57;100.00;97750.03;5072189;28;20282;-73
2021/07/01 06:45:32;;;;;;;73.75;43.30;;;;;;;14.52;100.00;97751.22;5073036;28;20254;-72
2021/07/01 06:48:03;;;;;;;102.18;52.33;;;;;;;14.50;100.00;97751.31;5070400;28;20248;-73
2021/07/01 06:50:30;;;;;;;99.63;54.40;;;;;;;14.48;100.00;97754.97;5072876;28;20249;-72
2021/07/01 06:52:58;;;;;;;79.35;47.90;;;;;;;14.52;100.00;97757.31;5072827;28;20713;-72
2021/07/01 06:55:25;;;;;;;64.70;30.90;;;;;;;14.48;100.00;97768.09;5072861;28;20217;-72
2021/07/01 06:57:53;;;;;;;65.93;41.30;;;;;;;14.45;100.00;97767.34;5074509;28;20232;-73
2021/07/01 07:02:11;;;;;;;94.70;57.75;;;;;;;14.61;100.00;97775.16;5030705;28;20548;-74
2021/07/01 07:04:38;;;;;;;89.10;41.08;;;;;;;14.44;100.00;97781.38;5028339;28;20218;-73
2021/07/01 07:07:05;;;;;;;60.47;26.33;;;;;;;14.35;100.00;97779.31;5027131;28;20321;-74
2021/07/01 07:09:32;;;;;;;66.35;35.42;;;;;;;14.51;100.00;97784.50;5027912;28;20303;-74
2021/07/01 07:11:58;;;;;;;53.90;18.88;;;;;;;14.62;100.00;97779.47;5028849;28;20260;-74
2021/07/01 07:14:25;;;;;;;57.28;13.57;;;;;;;14.54;100.00;97781.69;5028408;28;20230;-74
2021/07/01 07:16:53;;;;;;;50.22;12.45;;;;;;;14.56;100.00;97779.81;5026537;28;20248;-74
2021/07/01 07:19:22;;;;;;;46.00;12.20;;;;;;;14.58;100.00;97783.22;5029165;28;20226;-74
2021/07/01 07:21:51;;;;;;;52.67;13.02;;;;;;;14.55;100.00;97775.50;5024961;28;20265;-74
2021/07/01 07:24:21;;;;;;;59.03;13.75;;;;;;;14.51;100.00;97781.88;5028326;28;20230;-74
2021/07/01 07:26:50;;;;;;;54.42;12.48;;;;;;;14.57;100.00;97781.50;5026345;28;20250;-74
2021/07/01 07:29:17;;;;;;;43.85;12.15;;;;;;;14.61;100.00;97777.78;5026915;28;20247;-74
2021/07/01 07:31:45;;;;;;;51.22;13.63;;;;;;;14.74;100.00;97777.00;5028034;28;20320;-74
2021/07/01 07:34:11;;;;;;;57.25;15.85;;;;;;;14.78;100.00;97783.78;5030525;28;20291;-74
2021/07/01 07:36:39;;;;;;;56.08;19.23;;;;;;;14.75;100.00;97778.72;5028777;28;20290;-74
2021/07/01 07:39:07;;;;;;;53.28;14.15;;;;;;;14.88;100.00;97777.00;5028494;28;21029;-74
2021/07/01 07:41:33;;;;;;;65.65;16.05;;;;;;;14.89;100.00;97780.47;5027208;28;20234;-74
2021/07/01 07:44:00;;;;;;;64.85;15.73;;;;;;;14.76;100.00;97786.50;5028458;28;20217;-74
2021/07/01 07:46:29;;;;;;;46.58;13.73;;;;;;;14.87;100.00;97783.22;5026072;28;20250;-74
2021/07/01 07:48:56;;;;;;;51.15;14.90;;;;;;;14.97;100.00;97780.84;5030371;28;20963;-74
2021/07/01 07:51:24;;;;;;;57.10;14.57;;;;;;;15.07;100.00;97784.63;5027246;28;20235;-74
2021/07/01 07:53:56;;;;;;;44.05;12.98;;;;;;;15.11;100.00;97787.84;5027006;28;20215;-74
2021/07/01 07:56:26;;;;;;;58.17;14.43;;;;;;;15.02;100.00;97784.88;5027816;28;20245;-74
2021/07/01 07:58:55;;;;;;;34.25;12.55;;;;;;;14.78;100.00;97797.75;5028424;28;20222;-74
2021/07/01 08:01:23;;;;;;;58.78;16.00;;;;;;;14.78;100.00;97792.50;5025623;28;20245;-74
2021/07/01 08:03:53;;;;;;;50.80;15.20;;;;;;;14.84;100.00;97791.28;5026194;28;20246;-74
2021/07/01 08:06:22;;;;;;;52.63;15.05;;;;;;;14.77;100.00;97789.97;5027404;28;20382;-74
2021/07/01 08:08:49;;;;;;;59.80;16.10;;;;;;;14.96;100.00;97789.66;5024199;28;20692;-73
2021/07/01 08:11:18;;;;;;;62.85;16.20;;;;;;;14.94;100.00;97788.91;5026186;28;20242;-74
2021/07/01 08:13:48;;;;;;;53.65;19.13;;;;;;;15.09;100.00;97787.97;5015689;28;20705;-71
2021/07/01 08:16:15;;;;;;;53.38;17.55;;;;;;;15.09;100.00;97784.50;5013064;28;20247;-71
2021/07/01 08:18:41;;;;;;;66.43;20.08;;;;;;;15.09;100.00;97790.59;5012824;28;20866;-72
2021/07/01 08:21:10;;;;;;;59.60;17.60;;;;;;;15.28;100.00;97792.06;5011954;28;20258;-72
2021/07/01 08:23:39;;;;;;;73.88;22.55;;;;;;;15.34;100.00;97783.78;5014417;28;20238;-72
2021/07/01 08:26:05;;;;;;;83.82;25.40;;;;;;;15.50;100.00;97786.28;5015018;28;20298;-72
2021/07/01 08:28:34;;;;;;;64.38;20.45;;;;;;;15.26;100.00;97793.97;5012997;28;20212;-71
2021/07/01 08:31:08;;;;;;;54.10;14.65;;;;;;;15.09;100.00;97793.22;5010528;28;20244;-72
2021/07/01 08:33:35;;;;;;;61.92;16.38;;;;;;;15.03;100.00;97793.59;5014707;28;20212;-71
2021/07/01 08:36:03;;;;;;;56.28;16.00;;;;;;;15.06;100.00;97792.59;5012591;28;20731;-71
2021/07/01 08:38:35;;;;;;;59.53;16.15;;;;;;;15.07;100.00;97792.50;5014960;28;20215;-72
2021/07/01 08:41:12;;;;;;;62.17;15.65;;;;;;;15.21;100.00;97797.69;5009852;28;20240;-71
2021/07/01 08:43:43;;;;;;;53.42;14.48;;;;;;;15.37;100.00;97797.56;5014078;28;20210;-72
2021/07/01 08:46:13;;;;;;;51.65;14.57;;;;;;;15.10;100.00;97800.16;5011708;28;20243;-72
2021/07/01 08:48:43;;;;;;;60.58;14.88;;;;;;;15.23;100.00;97795.81;5013027;28;20219;-72
2021/07/01 08:51:10;;;;;;;75.35;17.08;;;;;;;15.19;100.00;97799.59;5008580;28;20401;-71
2021/07/01 08:53:57;;;;;;;53.63;14.27;;;;;;;15.33;100.00;97805.75;5011933;28;20216;-72
2021/07/01 08:56:24;;;;;;;53.92;14.68;;;;;;;15.24;100.00;97807.19;5009779;28;20890;-72
2021/07/01 08:58:55;;;;;;;65.25;16.02;;;;;;;15.29;100.00;97804.25;5013472;28;20207;-71
2021/07/01 09:01:23;;;;;;;62.50;14.50;;;;;;;15.37;100.00;97808.09;5010488;28;20239;-71
2021/07/01 09:03:51;;;;;;;56.63;14.65;;;;;;;15.31;100.00;97805.00;5011852;28;20930;-72
2021/07/01 09:06:24;;;;;;;50.17;14.18;;;;;;;15.32;100.00;97804.06;5012420;28;20290;-72
2021/07/01 09:08:52;;;;;;;50.25;14.93;;;;;;;15.41;100.00;97806.13;5017604;28;20210;-72
2021/07/01 09:11:20;;;;;;;63.72;19.90;;;;;;;15.61;100.00;97808.28;5013639;28;20236;-73
2021/07/01 09:13:48;;;;;;;53.35;13.50;;;;;;;15.78;100.00;97816.91;5012979;28;20324;-72
2021/07/01 09:16:17;;;;;;;53.83;11.95;;;;;;;16.28;100.00;97815.34;5010310;28;20260;-72
2021/07/01 09:18:44;;;;;;;48.47;7.45;;;;;;;16.32;100.00;97806.31;5012249;28;20726;-73
2021/07/01 09:21:12;;;;;;;55.40;8.93;;;;;;;16.19;96.94;97801.03;5012339;28;20239;-73
2021/07/01 09:23:45;;;;;;;54.92;8.95;;;;;;;15.97;94.68;97809.50;5013318;28;20220;-72
2021/07/01 09:26:14;;;;;;;59.38;10.90;;;;;;;16.03;99.56;97816.16;5015909;28;20683;-72
2021/07/01 09:28:40;;;;;;;51.17;9.98;;;;;;;16.03;99.54;97820.56;5013092;28;20219;-73
2021/07/01 09:31:08;;;;;;;59.70;12.27;;;;;;;15.87;98.36;97818.09;5007806;28;20756;-73
2021/07/01 09:33:36;;;;;;;64.80;15.60;;;;;;;15.58;98.55;97824.25;5011798;28;20215;-72
2021/07/01 09:36:02;;;;;;;58.95;16.50;;;;;;;15.67;99.40;97814.09;5011003;28;20245;-72
2021/07/01 09:38:29;;;;;;;51.10;17.67;;;;;;;15.76;98.53;97824.91;5011265;28;20227;-72
2021/07/01 09:40:56;;;;;;;56.22;12.93;;;;;;;15.82;100.00;97820.19;5011723;28;20239;-73
2021/07/01 09:43:23;;;;;;;49.70;17.05;;;;;;;15.99;99.57;97826.03;5011445;28;20222;-73
2021/07/01 09:45:51;;;;;;;62.53;9.93;;;;;;;15.90;95.88;97816.13;5012901;28;20262;-72
2021/07/01 09:48:19;;;;;;;42.22;7.85;;;;;;;16.00;99.05;97816.34;5013477;28;20215;-72
2021/07/01 09:50:48;;;;;;;43.53;7.65;;;;;;;16.42;97.78;97816.22;5011599;28;20250;-74
2021/07/01 09:53:18;;;;;;;55.60;12.73;;;;;;;16.33;93.27;97815.88;5011235;28;20350;-72
2021/07/01 09:55:44;;;;;;;52.42;7.93;;;;;;;16.65;96.39;97807.59;5008977;28;20247;-73
2021/07/01 09:58:14;;;;;;;55.38;8.05;;;;;;;16.68;94.75;97804.75;5011475;28;20760;-73
2021/07/01 10:00:48;;;;;;;51.67;7.53;;;;;;;16.63;93.30;97809.47;5012314;28;20250;-72
2021/07/01 10:03:15;;;;;;;39.83;6.07;;;;;;;16.70;97.67;97810.72;5010746;28;20222;-73
2021/07/01 10:05:41;;;;;;;51.92;7.95;;;;;;;16.69;98.48;97805.56;5011860;28;20234;-72
2021/07/01 10:08:09;;;;;;;49.80;7.32;;;;;;;16.55;92.55;97806.53;5012755;28;20229;-73
2021/07/01 10:10:47;;;;;;;72.78;9.50;;;;;;;16.49;94.31;97806.97;5012514;28;20231;-72
2021/07/01 10:13:14;;;;;;;49.10;6.97;;;;;;;16.45;97.07;97805.47;5011044;28;20214;-72
2021/07/01 10:15:42;;;;;;;60.40;13.32;;;;;;;16.31;95.00;97812.50;5013305;28;20235;-72
2021/07/01 10:18:11;;;;;;;41.97;7.40;;;;;;;16.40;95.75;97810.22;5014201;28;20281;-72
2021/07/01 10:20:39;;;;;;;52.13;8.45;;;;;;;16.32;97.05;97808.94;5012332;28;20237;-72
2021/07/01 10:23:18;;;;;;;51.83;7.88;;;;;;;15.96;100.00;97817.50;5007609;28;20893;-72
2021/07/01 10:25:45;;;;;;;48.35;7.47;;;;;;;15.90;99.48;97813.50;5011198;28;20277;-73
2021/07/01 10:28:13;;;;;;;56.50;9.00;;;;;;;15.77;100.00;97820.50;5010691;28;20282;-72
2021/07/01 10:30:41;;;;;;;53.85;7.88;;;;;;;15.86;99.81;97814.63;5010921;28;20235;-72
2021/07/01 10:33:21;;;;;;;53.10;8.50;;;;;;;15.98;100.00;97813.81;5009697;28;20243;-72
2021/07/01 10:35:48;;;;;;;47.22;7.55;;;;;;;15.91;100.00;97811.69;5010783;28;20255;-72
2021/07/01 10:38:16;;;;;;;54.60;17.38;;;;;;;15.95;100.00;97814.03;5010251;28;20220;-72
2021/07/01 10:40:45;;;;;;;55.55;9.93;;;;;;;16.18;100.00;97819.56;5009458;28;20238;-72
2021/07/01 10:43:14;;;;;;;59.50;9.30;;;;;;;16.23;100.00;97822.72;5011635;28;20240;-72
2021/07/01 10:45:52;;;;;;;51.63;7.97;;;;;;;16.08;100.00;97819.34;5009538;28;20235;-72
2021/07/01 10:48:20;;;;;;;40.03;6.28;;;;;;;16.12;97.20;97815.53;5009983;28;20223;-72
2021/07/01 10:50:48;;;;;;;47.72;7.32;;;;;;;16.18;100.00;97820.38;5010600;28;20234;-72
2021/07/01 10:53:28;;;;;;;55.50;8.30;;;;;;;16.15;99.14;97817.94;5011433;28;20223;-72
2021/07/01 10:55:55;;;;;;;52.95;7.25;;;;;;;16.20;94.16;97822.91;5008385;28;20246;-72
2021/07/01 10:58:21;;;;;;;51.92;7.22;;;;;;;16.26;95.99;97817.25;5010467;28;20692;-72
2021/07/01 11:00:48;;;;;;;51.65;7.20;;;;;;;16.34;89.94;97824.66;5011335;28;20239;-73
2021/07/01 11:03:20;;;;;;;44.20;6.38;;;;;;;16.49;95.83;97810.44;5010730;28;20251;-73
2021/07/01 11:05:47;;;;;;;45.10;6.40;;;;;;;16.38;90.35;97821.69;5013252;28;20239;-73
2021/07/01 11:08:23;;;;;;;46.83;6.63;;;;;;;16.48;92.73;97815.78;5008027;28;20231;-72
2021/07/01 11:10:52;;;;;;;48.53;11.90;;;;;;;16.41;94.48;97812.72;5010687;28;20234;-73
2021/07/01 11:13:19;;;;;;;42.00;6.00;;;;;;;16.27;98.91;97818.94;5013070;28;20212;-72
2021/07/01 11:16:02;;;;;;;53.95;7.50;;;;;;;16.09;93.54;97817.53;5007528;28;20247;-72
2021/07/01 11:18:36;;;;;;;48.53;6.95;;;;;;;16.08;94.91;97829.00;5009489;28;20226;-73